createdAt,value
2022-10-05T00:01:35.394Z,99491.30
2022-10-05T00:04:16.012Z,99497.80
2022-10-05T00:06:51.171Z,99494.33
2022-10-05T00:09:23.375Z,99499.05
2022-10-05T00:11:55.051Z,99502.84
2022-10-05T00:14:34.241Z,99497.85
2022-10-05T00:17:07.403Z,99496.75
2022-10-05T00:19:39.896Z,99490.48
2022-10-05T00:22:15.243Z,99488.80
2022-10-05T00:24:47.619Z,99488.38
2022-10-05T00:27:21.427Z,99489.21
2022-10-05T00:29:59.374Z,99482.23
2022-10-05T00:32:32.311Z,99479.15
2022-10-05T00:35:03.870Z,99470.81
2022-10-05T00:37:35.408Z,99470.65
2022-10-05T00:40:20.485Z,99469.13
2022-10-05T00:43:00.849Z,99470.15
2022-10-05T00:45:38.773Z,99470.83
2022-10-05T00:48:20.527Z,99471.11
2022-10-05T00:51:17.273Z,99461.96
2022-10-05T00:54:03.275Z,99452.45
2022-10-05T00:56:57.575Z,99447.77
2022-10-05T00:59:33.481Z,99437.73
2022-10-05T01:02:11.782Z,99426.55
2022-10-05T01:04:50.547Z,99428.70
2022-10-05T01:07:33.904Z,99417.02
2022-10-05T01:10:16.085Z,99416.71
2022-10-05T01:12:55.737Z,99416.83
2022-10-05T01:15:32.615Z,99414.08
2022-10-05T01:18:13.581Z,99410.23
2022-10-05T01:20:57.453Z,99417.87
2022-10-05T01:24:18.332Z,99418.08
2022-10-05T01:27:09.760Z,99420.44
2022-10-05T01:29:46.762Z,99424.23
2022-10-05T01:32:26.012Z,99426.20
2022-10-05T01:35:10.534Z,99428.97
2022-10-05T01:37:54.488Z,99445.61
2022-10-05T01:40:32.580Z,99453.33
2022-10-05T01:43:13.065Z,99450.80
2022-10-05T01:45:54.873Z,99448.72
2022-10-05T01:48:42.782Z,99441.89
2022-10-05T01:51:28.876Z,99434.52
2022-10-05T01:54:08.315Z,99423.83
2022-10-05T01:56:45.912Z,99423.70
2022-10-05T01:59:28.419Z,99417.80
2022-10-05T02:02:04.820Z,99418.49
2022-10-05T02:05:01.511Z,99413.60
2022-10-05T02:07:38.307Z,99410.62
2022-10-05T02:10:19.079Z,99407.66
2022-10-05T02:12:54.506Z,99406.27
2022-10-05T02:15:30.529Z,99394.73
2022-10-05T02:18:11.145Z,99401.27
2022-10-05T02:20:44.897Z,99408.97
2022-10-05T02:23:20.500Z,99400.60
2022-10-05T02:25:55.684Z,99391.48
2022-10-05T02:28:33.142Z,99388.81
2022-10-05T02:31:10.805Z,99389.10
2022-10-05T02:33:42.471Z,99389.67
2022-10-05T02:36:17.688Z,99393.59
2022-10-05T02:38:59.605Z,99388.91
2022-10-05T02:41:44.077Z,99385.36
2022-10-05T02:44:26.912Z,99384.17
2022-10-05T02:47:08.275Z,99381.12
2022-10-05T02:49:46.191Z,99392.30
2022-10-05T02:52:24.284Z,99401.67
2022-10-05T02:55:04.647Z,99403.17
2022-10-05T02:57:40.394Z,99410.27
2022-10-05T03:00:17.236Z,99405.61
2022-10-05T03:02:56.812Z,99400.52
2022-10-05T03:05:32.790Z,99403.70
2022-10-05T03:08:09.242Z,99412.13
2022-10-05T03:10:48.669Z,99419.67
2022-10-05T03:13:27.804Z,99429.73
2022-10-05T03:16:12.513Z,99432.09
2022-10-05T03:18:58.357Z,99442.55
2022-10-05T03:21:53.566Z,99445.81
2022-10-05T03:24:41.510Z,99447.34
2022-10-05T03:27:27.094Z,99445.66
2022-10-05T03:30:04.373Z,99446.80
2022-10-05T03:32:49.924Z,99445.73
2022-10-05T03:35:29.403Z,99452.06
2022-10-05T03:38:10.715Z,99458.85
2022-10-05T03:40:46.546Z,99453.98
2022-10-05T03:43:47.790Z,99442.04
2022-10-05T03:46:26.728Z,99426.00
2022-10-05T03:49:07.180Z,99418.55
2022-10-05T03:51:44.161Z,99407.63
2022-10-05T03:54:22.418Z,99402.23
2022-10-05T03:56:56.983Z,99394.67
2022-10-05T03:59:36.526Z,99390.55
2022-10-05T04:02:14.403Z,99386.95
2022-10-05T04:04:51.878Z,99380.35
2022-10-05T04:07:36.689Z,99368.67
2022-10-05T04:10:17.651Z,99354.75
2022-10-05T04:12:55.266Z,99361.40
2022-10-05T04:15:33.825Z,99366.67
2022-10-05T04:18:07.289Z,99368.90
2022-10-05T04:20:45.893Z,99376.53
2022-10-05T04:23:25.435Z,99380.25
2022-10-05T04:26:03.557Z,99391.44
2022-10-05T04:28:45.911Z,99388.83
2022-10-05T04:31:27.003Z,99395.76
2022-10-05T04:34:10.665Z,99400.04
2022-10-05T04:36:50.197Z,99403.69
2022-10-05T04:39:34.263Z,99401.06
2022-10-05T04:42:13.461Z,99410.85
2022-10-05T04:45:08.808Z,99401.28
2022-10-05T04:48:05.040Z,99401.70
2022-10-05T04:50:48.694Z,99393.20
2022-10-05T04:53:28.521Z,99381.60
2022-10-05T04:56:04.384Z,99386.27
2022-10-05T04:58:46.658Z,99392.47
2022-10-05T05:01:36.145Z,99393.27
2022-10-05T05:04:23.375Z,99390.59
2022-10-05T05:07:04.870Z,99388.67
2022-10-05T05:10:07.953Z,99383.92
2022-10-05T05:12:52.327Z,99378.58
2022-10-05T05:15:36.549Z,99387.88
2022-10-05T05:18:28.797Z,99386.22
2022-10-05T05:21:09.769Z,99389.56
2022-10-05T05:23:45.716Z,99387.05
2022-10-05T05:26:25.156Z,99386.41
2022-10-05T05:29:06.654Z,99381.92
2022-10-05T05:31:44.908Z,99375.86
2022-10-05T05:34:34.992Z,99372.84
2022-10-05T05:37:13.602Z,99381.10
2022-10-05T05:39:54.644Z,99406.70
2022-10-05T05:42:37.062Z,99422.27
2022-10-05T05:45:17.631Z,99419.37
2022-10-05T05:47:54.434Z,99411.21
2022-10-05T05:50:42.589Z,99403.91
2022-10-05T05:53:20.022Z,99396.50
2022-10-05T05:55:56.399Z,99391.34
2022-10-05T05:58:32.979Z,99403.30
2022-10-05T06:01:25.111Z,99406.48
2022-10-05T06:04:07.628Z,99402.98
2022-10-05T06:06:46.960Z,99401.81
2022-10-05T06:09:22.202Z,99408.06
2022-10-05T06:11:58.249Z,99410.00
2022-10-05T06:14:36.279Z,99406.55
2022-10-05T06:17:13.338Z,99406.52
2022-10-05T06:19:47.066Z,99407.01
2022-10-05T06:22:22.417Z,99402.16
2022-10-05T06:25:05.416Z,99401.40
2022-10-05T06:27:59.261Z,99400.88
2022-10-05T06:30:42.217Z,99402.91
2022-10-05T06:33:24.730Z,99402.08
2022-10-05T06:36:08.267Z,99413.71
2022-10-05T06:38:55.283Z,99416.33
2022-10-05T06:41:35.746Z,99417.25
2022-10-05T06:44:10.909Z,99421.91
2022-10-05T06:46:55.336Z,99420.63
2022-10-05T06:49:31.571Z,99417.48
2022-10-05T06:52:11.953Z,99419.52
2022-10-05T06:54:56.551Z,99417.09
2022-10-05T06:57:44.162Z,99412.91
2022-10-05T07:00:21.290Z,99408.98
2022-10-05T07:02:59.447Z,99410.25
2022-10-05T07:05:53.849Z,99413.79
2022-10-05T07:08:39.221Z,99409.36
2022-10-05T07:11:24.317Z,99404.62
2022-10-05T07:14:14.623Z,99401.92
2022-10-05T07:17:02.729Z,99396.95
2022-10-05T07:19:43.091Z,99392.39
2022-10-05T07:22:55.513Z,99387.77
2022-10-05T07:25:36.901Z,99388.13
2022-10-05T07:28:14.667Z,99385.83
2022-10-05T07:30:55.946Z,99391.14
2022-10-05T07:33:35.430Z,99399.48
2022-10-05T07:36:33.030Z,99401.27
2022-10-05T07:39:11.875Z,99404.77
2022-10-05T07:41:47.982Z,99407.76
2022-10-05T07:44:27.921Z,99411.95
2022-10-05T07:47:06.417Z,99403.56
2022-10-05T07:49:47.018Z,99395.60
2022-10-05T07:52:24.852Z,99395.97
2022-10-05T07:55:06.496Z,99404.75
2022-10-05T07:57:48.728Z,99402.45
2022-10-05T08:00:23.250Z,99393.67
2022-10-05T08:02:59.134Z,99401.33
2022-10-05T08:05:32.811Z,99407.54
2022-10-05T08:08:19.642Z,99409.69
2022-10-05T08:10:58.210Z,99414.85
2022-10-05T08:13:36.034Z,99429.48
2022-10-05T08:16:13.619Z,99419.88
2022-10-05T08:18:56.038Z,99425.48
2022-10-05T08:21:37.322Z,99424.36
2022-10-05T08:24:19.321Z,99426.40
2022-10-05T08:26:59.892Z,99420.59
2022-10-05T08:29:39.016Z,99417.55
2022-10-05T08:32:19.989Z,99419.15
2022-10-05T08:34:56.960Z,99412.17
2022-10-05T08:37:32.333Z,99414.79
2022-10-05T08:40:32.370Z,99415.94
2022-10-05T08:43:22.933Z,99419.85
2022-10-05T08:46:36.788Z,99424.38
2022-10-05T08:49:34.913Z,99421.07
2022-10-05T08:52:30.381Z,99419.27
2022-10-05T08:55:38.988Z,99415.77
2022-10-05T08:58:33.299Z,99414.45
2022-10-05T09:01:13.178Z,99412.09
2022-10-05T09:04:01.491Z,99416.32
2022-10-05T09:06:53.911Z,99415.91
2022-10-05T09:09:47.908Z,99414.77
2022-10-05T09:12:38.098Z,99411.40
2022-10-05T09:15:35.093Z,99410.21
2022-10-05T09:18:29.350Z,99409.83
2022-10-05T09:21:02.919Z,99414.09
2022-10-05T09:23:42.982Z,99413.28
2022-10-05T09:26:44.247Z,99409.35
2022-10-05T09:29:40.370Z,99414.79
2022-10-05T09:32:36.805Z,99413.48
2022-10-05T09:35:22.912Z,99414.56
2022-10-05T09:38:16.378Z,99410.02
2022-10-05T09:41:20.901Z,99409.23
2022-10-05T09:44:33.826Z,99411.23
2022-10-05T09:47:38.939Z,99407.23
2022-10-05T09:50:47.788Z,99411.19
2022-10-05T09:53:45.569Z,99411.42
2022-10-05T09:56:49.097Z,99409.39
2022-10-05T10:03:21.359Z,99402.97
2022-10-05T10:06:17.613Z,99410.28
2022-10-05T10:09:10.053Z,99410.29
2022-10-05T10:12:02.602Z,99410.68
2022-10-05T10:15:11.112Z,99414.54
2022-10-05T10:18:10.120Z,99415.30
2022-10-05T10:21:00.617Z,99421.85
2022-10-05T10:23:47.941Z,99422.16
2022-10-05T10:29:47.001Z,99428.19
2022-10-05T10:32:37.866Z,99422.90
2022-10-05T10:35:31.649Z,99413.36
2022-10-05T10:38:35.056Z,99408.51
2022-10-05T10:41:48.284Z,99396.60
2022-10-05T10:45:00.186Z,99405.42
2022-10-05T10:47:56.203Z,99400.52
2022-10-05T10:50:50.617Z,99402.80
2022-10-05T10:53:39.258Z,99402.09
2022-10-05T10:56:29.444Z,99402.89
2022-10-05T10:59:36.131Z,99400.56
2022-10-05T11:02:37.278Z,99392.77
2022-10-05T11:05:39.046Z,99404.09
2022-10-05T11:08:38.337Z,99402.81
2022-10-05T11:11:31.053Z,99403.55
2022-10-05T11:14:29.137Z,99397.00
2022-10-05T11:17:24.371Z,99402.71
2022-10-05T11:20:09.442Z,99402.11
2022-10-05T11:23:10.045Z,99399.81
2022-10-05T11:26:02.745Z,99398.86
2022-10-05T11:29:11.583Z,99395.10
2022-10-05T11:32:08.928Z,99386.98
2022-10-05T11:35:03.424Z,99377.94
2022-10-05T11:37:58.420Z,99383.67
2022-10-05T11:40:57.105Z,99382.65
2022-10-05T11:44:06.114Z,99377.02
2022-10-05T11:46:49.354Z,99376.02
2022-10-05T11:49:34.235Z,99376.40
2022-10-05T11:52:19.411Z,99377.29
2022-10-05T11:55:16.213Z,99376.72
2022-10-05T11:57:54.397Z,99373.85
2022-10-05T12:00:31.874Z,99372.99
2022-10-05T12:03:29.300Z,99369.29
2022-10-05T12:06:26.380Z,99363.94
2022-10-05T12:09:15.262Z,99360.13
2022-10-05T12:11:59.093Z,99350.29
2022-10-05T12:14:34.625Z,99339.28
2022-10-05T12:17:15.822Z,99337.46
2022-10-05T12:19:55.766Z,99343.41
2022-10-05T12:22:32.970Z,99345.05
2022-10-05T12:25:17.562Z,99343.23
2022-10-05T12:27:53.367Z,99347.07
2022-10-05T12:30:33.872Z,99341.14
2022-10-05T12:33:13.895Z,99337.73
2022-10-05T12:35:51.999Z,99328.62
2022-10-05T12:38:29.492Z,99325.33
2022-10-05T12:41:08.725Z,99326.41
2022-10-05T12:43:53.935Z,99323.95
2022-10-05T12:46:33.018Z,99322.67
2022-10-05T12:49:29.574Z,99314.27
2022-10-05T12:52:03.262Z,99314.58
2022-10-05T12:54:48.143Z,99310.71
2022-10-05T12:57:28.608Z,99309.39
2022-10-05T13:00:04.580Z,99313.48
2022-10-05T13:02:43.311Z,99311.77
2022-10-05T13:05:34.800Z,99310.16
2022-10-05T13:08:19.181Z,99307.40
2022-10-05T13:10:54.290Z,99306.97
2022-10-05T13:13:38.753Z,99305.29
2022-10-05T13:16:20.771Z,99304.79
2022-10-05T13:19:05.222Z,99300.38
2022-10-05T13:21:58.064Z,99301.02
2022-10-05T13:24:32.713Z,99302.06
2022-10-05T13:27:11.534Z,99298.70
2022-10-05T13:29:52.278Z,99300.98
2022-10-05T13:32:30.595Z,99295.58
2022-10-05T13:35:17.856Z,99292.46
2022-10-05T13:37:59.950Z,99299.48
2022-10-05T13:40:38.643Z,99295.55
2022-10-05T13:43:20.266Z,99293.52
2022-10-05T13:45:57.097Z,99289.45
2022-10-05T13:48:49.885Z,99286.95
2022-10-05T13:51:24.806Z,99283.70
2022-10-05T13:54:05.921Z,99284.22
2022-10-05T13:56:43.992Z,99282.07
2022-10-05T13:59:24.770Z,99278.09
2022-10-05T14:02:02.713Z,99273.15
2022-10-05T14:04:47.970Z,99267.71
2022-10-05T14:07:31.469Z,99271.59
2022-10-05T14:10:05.201Z,99271.29
2022-10-05T14:12:44.517Z,99269.20
2022-10-05T14:15:23.839Z,99268.70
2022-10-05T14:17:55.601Z,99272.20
2022-10-05T14:20:31.166Z,99276.27
2022-10-05T14:23:07.166Z,99277.98
2022-10-05T14:25:54.167Z,99281.63
2022-10-05T14:28:29.698Z,99281.25
2022-10-05T14:31:04.621Z,99282.15
2022-10-05T14:33:38.405Z,99280.18
2022-10-05T14:36:17.263Z,99279.78
2022-10-05T14:38:57.935Z,99273.34
2022-10-05T14:41:35.819Z,99270.13
2022-10-05T14:44:30.001Z,99268.27
2022-10-05T14:47:18.968Z,99267.76
2022-10-05T14:50:14.178Z,99266.96
2022-10-05T14:53:00.850Z,99263.57
2022-10-05T14:55:48.261Z,99263.95
2022-10-05T14:58:35.320Z,99261.56
2022-10-05T15:01:15.640Z,99262.26
2022-10-05T15:03:59.844Z,99262.59
2022-10-05T15:06:38.721Z,99261.35
2022-10-05T15:09:40.730Z,99259.02
2022-10-05T15:12:19.441Z,99260.21
2022-10-05T15:14:53.767Z,99254.94
2022-10-05T15:17:32.137Z,99256.59
2022-10-05T15:20:09.782Z,99253.85
2022-10-05T15:22:50.238Z,99250.23
2022-10-05T15:25:28.143Z,99247.02
2022-10-05T15:28:13.268Z,99243.59
2022-10-05T15:30:53.665Z,99234.66
2022-10-05T15:33:34.290Z,99227.83
2022-10-05T15:36:12.699Z,99229.12
2022-10-05T15:39:00.190Z,99225.86
2022-10-05T15:41:50.707Z,99228.08
2022-10-05T15:44:34.338Z,99229.92
2022-10-05T15:47:10.442Z,99225.80
2022-10-05T15:49:57.359Z,99226.02
2022-10-05T15:52:37.252Z,99235.83
2022-10-05T15:55:36.478Z,99231.19
2022-10-05T15:58:31.665Z,99231.12
2022-10-05T16:01:11.689Z,99232.89
2022-10-05T16:03:50.522Z,99229.80
2022-10-05T16:06:57.177Z,99228.36
2022-10-05T16:09:43.730Z,99239.58
2022-10-05T16:12:27.468Z,99240.20
2022-10-05T16:15:16.945Z,99237.50
2022-10-05T16:18:01.839Z,99239.70
2022-10-05T16:20:46.490Z,99231.46
2022-10-05T16:23:28.386Z,99232.55
2022-10-05T16:26:14.739Z,99232.92
2022-10-05T16:29:00.879Z,99234.55
2022-10-05T16:31:40.529Z,99230.75
2022-10-05T16:34:26.210Z,99230.29
2022-10-05T16:37:09.447Z,99230.42
2022-10-05T16:39:51.419Z,99233.55
2022-10-05T16:42:42.052Z,99233.52
2022-10-05T16:45:28.660Z,99230.75
2022-10-05T16:48:09.618Z,99229.55
2022-10-05T16:50:54.284Z,99231.83
2022-10-05T16:53:31.828Z,99228.89
2022-10-05T16:56:07.425Z,99224.63
2022-10-05T16:58:52.288Z,99224.02
2022-10-05T17:01:39.874Z,99223.08
2022-10-05T17:04:34.805Z,99221.55
2022-10-05T17:07:35.211Z,99215.85
2022-10-05T17:10:26.899Z,99217.98
2022-10-05T17:13:07.335Z,99216.20
2022-10-05T17:15:54.340Z,99219.21
2022-10-05T17:18:51.405Z,99220.27
2022-10-05T17:21:31.140Z,99218.65
2022-10-05T17:24:21.740Z,99219.84
2022-10-05T17:27:21.774Z,99232.34
2022-10-05T17:29:55.910Z,99233.31
2022-10-05T17:32:40.190Z,99234.70
2022-10-05T17:35:50.942Z,99233.73
2022-10-05T17:38:25.432Z,99225.89
2022-10-05T17:41:19.653Z,99217.61
2022-10-05T17:44:20.155Z,99211.05
2022-10-05T17:46:55.019Z,99217.39
2022-10-05T17:50:08.938Z,99215.55
2022-10-05T17:53:02.269Z,99217.30
2022-10-05T17:55:44.196Z,99215.09
2022-10-05T17:59:00.823Z,99216.11
2022-10-05T18:01:38.460Z,99224.09
2022-10-05T18:04:30.564Z,99220.73
2022-10-05T18:07:16.227Z,99219.05
2022-10-05T18:09:57.391Z,99226.36
2022-10-05T18:12:45.975Z,99228.90
2022-10-05T18:15:46.090Z,99234.60
2022-10-05T18:18:38.753Z,99246.40
2022-10-05T18:21:24.525Z,99245.38
2022-10-05T18:24:18.712Z,99242.91
2022-10-05T18:27:00.292Z,99238.95
2022-10-05T18:30:05.744Z,99235.63
2022-10-05T18:32:59.002Z,99233.60
2022-10-05T18:35:38.178Z,99239.34
2022-10-05T18:38:25.438Z,99237.96
2022-10-05T18:41:03.375Z,99243.80
2022-10-05T18:43:41.062Z,99244.73
2022-10-05T18:46:27.433Z,99237.23
2022-10-05T18:49:11.974Z,99238.48
2022-10-05T18:51:52.499Z,99241.91
2022-10-05T18:54:38.492Z,99241.79
2022-10-05T18:57:40.864Z,99242.39
2022-10-05T19:00:19.902Z,99240.59
2022-10-05T19:02:57.235Z,99235.21
2022-10-05T19:05:48.664Z,99240.56
2022-10-05T19:08:32.950Z,99244.77
2022-10-05T19:11:16.088Z,99242.86
2022-10-05T19:13:58.297Z,99246.27
2022-10-05T19:16:55.716Z,99242.19
2022-10-05T19:19:45.219Z,99249.39
2022-10-05T19:22:27.435Z,99250.85
2022-10-05T19:25:17.520Z,99253.02
2022-10-05T19:28:00.611Z,99253.86
2022-10-05T19:30:45.491Z,99251.45
2022-10-05T19:33:32.426Z,99255.20
2022-10-05T19:36:25.902Z,99253.11
2022-10-05T19:39:07.934Z,99249.90
2022-10-05T19:41:54.388Z,99253.90
2022-10-05T19:44:39.687Z,99249.61
2022-10-05T19:47:25.068Z,99254.50
2022-10-05T19:50:07.588Z,99253.61
2022-10-05T19:52:49.837Z,99256.89
2022-10-05T19:55:32.918Z,99257.61
2022-10-05T19:58:17.478Z,99258.84
2022-10-05T20:00:56.204Z,99265.48
2022-10-05T20:03:29.907Z,99263.01
2022-10-05T20:06:00.851Z,99263.34
2022-10-05T20:08:42.125Z,99261.30
2022-10-05T20:11:15.605Z,99264.66
2022-10-05T20:13:49.238Z,99262.77
2022-10-05T20:16:49.982Z,99266.11
2022-10-05T20:19:55.520Z,99265.82
2022-10-05T20:22:30.825Z,99265.48
2022-10-05T20:25:03.768Z,99271.44
2022-10-05T20:27:56.057Z,99268.40
2022-10-05T20:30:31.554Z,99268.45
2022-10-05T20:33:04.745Z,99261.73
2022-10-05T20:35:36.289Z,99265.70
2022-10-05T20:38:07.700Z,99263.52
2022-10-05T20:40:40.038Z,99265.26
2022-10-05T20:43:11.669Z,99264.08
2022-10-05T20:45:44.381Z,99268.50
2022-10-05T20:48:17.558Z,99256.66
2022-10-05T20:50:49.080Z,99263.51
2022-10-05T20:53:20.559Z,99260.89
2022-10-05T20:55:52.010Z,99261.34
2022-10-05T20:58:24.051Z,99262.30
2022-10-05T21:01:13.293Z,99259.36
2022-10-05T21:03:44.897Z,99262.64
2022-10-05T21:06:18.023Z,99258.02
2022-10-05T21:08:51.595Z,99257.58
2022-10-05T21:11:23.365Z,99261.53
2022-10-05T21:13:55.218Z,99261.27
2022-10-05T21:16:27.107Z,99263.28
2022-10-05T21:18:58.637Z,99264.55
2022-10-05T21:21:30.088Z,99265.05
2022-10-05T21:24:01.568Z,99268.35
2022-10-05T21:26:34.325Z,99265.88
2022-10-05T21:29:11.550Z,99270.45
2022-10-05T21:31:44.269Z,99267.91
2022-10-05T21:34:15.956Z,99269.27
2022-10-05T21:36:47.536Z,99273.10
2022-10-05T21:39:19.377Z,99271.84
2022-10-05T21:41:51.154Z,99271.93
2022-10-05T21:44:22.806Z,99272.56
2022-10-05T21:46:54.443Z,99275.47
2022-10-05T21:49:26.807Z,99272.03
2022-10-05T21:51:59.926Z,99271.03
2022-10-05T21:54:33.829Z,99272.53
2022-10-05T21:57:05.690Z,99273.11
2022-10-05T21:59:37.664Z,99274.40
2022-10-05T22:02:09.561Z,99274.87
2022-10-05T22:04:41.278Z,99273.57
2022-10-05T22:07:20.514Z,99274.17
2022-10-05T22:09:52.693Z,99275.02
2022-10-05T22:12:24.649Z,99270.88
2022-10-05T22:14:56.203Z,99276.27
2022-10-05T22:17:31.251Z,99275.75
2022-10-05T22:20:03.780Z,99267.85
2022-10-05T22:22:35.217Z,99268.88
2022-10-05T22:25:07.765Z,99265.27
2022-10-05T22:27:39.659Z,99268.84
2022-10-05T22:30:15.077Z,99269.09
2022-10-05T22:32:46.930Z,99269.70
2022-10-05T22:35:18.689Z,99269.32
2022-10-05T22:37:50.142Z,99269.38
2022-10-05T22:40:21.836Z,99271.15
2022-10-05T22:42:54.253Z,99273.24
2022-10-05T22:45:30.355Z,99274.20
2022-10-05T22:48:03.924Z,99277.38
2022-10-05T22:50:35.399Z,99274.05
2022-10-05T22:53:07.149Z,99284.73
2022-10-05T22:55:38.704Z,99285.48
2022-10-05T22:58:10.181Z,99289.85
2022-10-05T23:00:57.465Z,99293.18
2022-10-05T23:03:29.423Z,99293.79
2022-10-05T23:06:03.512Z,99297.10
2022-10-05T23:08:36.493Z,99301.95
2022-10-05T23:11:09.638Z,99305.27
2022-10-05T23:13:41.602Z,99308.78
2022-10-05T23:16:15.519Z,99310.98
2022-10-05T23:18:48.706Z,99308.48
2022-10-05T23:21:21.286Z,99319.06
2022-10-05T23:23:52.702Z,99321.16
2022-10-05T23:26:26.063Z,99324.91
2022-10-05T23:28:57.928Z,99323.48
2022-10-05T23:31:33.633Z,99327.43
2022-10-05T23:34:05.090Z,99328.61
2022-10-05T23:36:36.510Z,99333.50
2022-10-05T23:39:07.961Z,99334.88
2022-10-05T23:41:39.562Z,99335.03
2022-10-05T23:44:11.111Z,99338.85
2022-10-05T23:46:42.557Z,99338.95
2022-10-05T23:49:14.941Z,99340.70
2022-10-05T23:51:46.315Z,99336.34
2022-10-05T23:54:17.744Z,99342.88
2022-10-05T23:56:49.141Z,99347.48
2022-10-05T23:59:20.581Z,99349.89
